createdAt,value
2023-04-13T00:02:20.784Z,19.70
2023-04-13T00:04:50.655Z,19.70
2023-04-13T00:07:18.500Z,19.70
2023-04-13T00:09:47.108Z,19.70
2023-04-13T00:12:16.904Z,19.60
2023-04-13T00:14:43.955Z,19.60
2023-04-13T00:17:10.983Z,19.60
2023-04-13T00:19:37.684Z,19.50
2023-04-13T00:22:04.850Z,19.60
2023-04-13T00:24:31.585Z,19.50
2023-04-13T00:26:58.294Z,19.50
2023-04-13T00:29:25.057Z,19.50
2023-04-13T00:31:51.769Z,19.40
2023-04-13T00:34:18.736Z,19.40
2023-04-13T00:36:45.410Z,19.40
2023-04-13T00:39:13.508Z,19.40
2023-04-13T00:41:40.259Z,19.40
2023-04-13T00:44:09.024Z,19.40
2023-04-13T00:46:35.927Z,19.40
2023-04-13T00:49:03.359Z,19.30
2023-04-13T00:51:30.322Z,19.30
2023-04-13T00:53:59.321Z,19.30
2023-04-13T00:56:27.307Z,19.30
2023-04-13T00:58:56.354Z,19.30
2023-04-13T01:01:24.069Z,19.20
2023-04-13T01:03:53.431Z,19.20
2023-04-13T01:06:28.530Z,19.20
2023-04-13T01:09:11.336Z,19.20
2023-04-13T01:11:46.909Z,19.20
2023-04-13T01:14:18.701Z,19.20
2023-04-13T01:16:59.095Z,19.20
2023-04-13T01:19:52.531Z,19.20
2023-04-13T01:22:22.461Z,19.10
2023-04-13T01:25:18.293Z,19.10
2023-04-13T01:27:51.909Z,19.10
2023-04-13T01:30:24.303Z,19.10
2023-04-13T01:32:56.086Z,19.10
2023-04-13T01:35:25.543Z,19.10
2023-04-13T01:37:53.714Z,19.00
2023-04-13T01:40:30.608Z,19.00
2023-04-13T01:42:58.378Z,19.00
2023-04-13T01:45:46.106Z,19.00
2023-04-13T01:48:29.882Z,19.00
2023-04-13T01:51:19.548Z,19.00
2023-04-13T01:53:57.233Z,19.00
2023-04-13T01:56:26.472Z,18.90
2023-04-13T01:58:58.775Z,18.90
2023-04-13T02:01:26.883Z,18.90
2023-04-13T02:03:53.987Z,18.90
2023-04-13T02:06:20.908Z,18.90
2023-04-13T02:08:50.053Z,18.90
2023-04-13T02:11:18.776Z,18.90
2023-04-13T02:13:45.518Z,18.90
2023-04-13T02:16:16.211Z,18.90
2023-04-13T02:18:43.107Z,18.90
2023-04-13T02:21:11.098Z,18.80
2023-04-13T02:23:40.502Z,18.80
2023-04-13T02:26:13.009Z,18.80
2023-04-13T02:28:40.427Z,18.80
2023-04-13T02:31:07.446Z,18.80
2023-04-13T02:33:36.197Z,18.70
2023-04-13T02:36:04.128Z,18.70
2023-04-13T02:38:37.335Z,18.80
2023-04-13T02:41:22.907Z,18.70
2023-04-13T02:43:50.899Z,18.70
2023-04-13T02:46:19.197Z,18.70
2023-04-13T02:48:47.587Z,18.70
2023-04-13T02:51:14.299Z,18.70
2023-04-13T02:53:43.448Z,18.70
2023-04-13T02:56:10.432Z,18.70
2023-04-13T02:58:37.528Z,18.60
2023-04-13T03:01:08.618Z,18.60
2023-04-13T03:03:35.797Z,18.60
2023-04-13T03:06:02.751Z,18.60
2023-04-13T03:08:41.266Z,18.60
2023-04-13T03:11:13.993Z,18.60
2023-04-13T03:13:47.155Z,18.60
2023-04-13T03:16:17.543Z,18.50
2023-04-13T03:18:45.700Z,18.60
2023-04-13T03:21:14.092Z,18.50
2023-04-13T03:23:49.494Z,18.50
2023-04-13T03:26:17.842Z,18.50
2023-04-13T03:28:44.562Z,18.50
2023-04-13T03:31:11.889Z,18.50
2023-04-13T03:33:38.857Z,18.50
2023-04-13T03:36:08.485Z,18.50
2023-04-13T03:38:37.127Z,18.50
2023-04-13T03:41:03.998Z,18.50
2023-04-13T03:43:32.898Z,18.40
2023-04-13T03:46:04.584Z,18.40
2023-04-13T03:48:32.131Z,18.40
2023-04-13T03:51:01.555Z,18.40
2023-04-13T03:53:36.598Z,18.40
2023-04-13T03:56:05.512Z,18.40
2023-04-13T03:58:34.718Z,18.40
2023-04-13T04:01:02.558Z,18.30
2023-04-13T04:03:43.916Z,18.30
2023-04-13T04:06:11.942Z,18.40
2023-04-13T04:08:43.857Z,18.30
2023-04-13T04:11:22.502Z,18.30
2023-04-13T04:13:49.443Z,18.30
2023-04-13T04:16:16.572Z,18.30
2023-04-13T04:18:49.253Z,18.30
2023-04-13T04:21:21.722Z,18.30
2023-04-13T04:23:48.837Z,18.20
2023-04-13T04:26:17.791Z,18.20
2023-04-13T04:29:01.753Z,18.20
2023-04-13T04:31:37.005Z,18.20
2023-04-13T04:34:07.167Z,18.20
2023-04-13T04:36:36.373Z,18.20
2023-04-13T04:39:04.645Z,18.20
2023-04-13T04:41:39.715Z,18.10
2023-04-13T04:44:08.824Z,18.10
2023-04-13T04:46:41.562Z,18.10
2023-04-13T04:49:11.352Z,18.10
2023-04-13T04:51:39.156Z,18.10
2023-04-13T04:54:07.389Z,18.10
2023-04-13T04:56:34.508Z,18.10
2023-04-13T04:59:01.473Z,18.10
2023-04-13T05:01:38.709Z,18.10
2023-04-13T05:04:10.769Z,18.10
2023-04-13T05:06:41.467Z,18.10
2023-04-13T05:09:11.629Z,18.00
2023-04-13T05:11:43.823Z,18.00
2023-04-13T05:14:12.549Z,18.00
2023-04-13T05:16:39.692Z,18.00
2023-04-13T05:19:14.066Z,18.00
2023-04-13T05:22:01.101Z,18.00
2023-04-13T05:24:31.007Z,18.00
2023-04-13T05:26:58.753Z,18.00
2023-04-13T05:29:25.641Z,18.00
2023-04-13T05:31:52.579Z,17.90
2023-04-13T05:34:19.922Z,17.90
2023-04-13T05:37:00.074Z,18.00
2023-04-13T05:39:27.436Z,17.90
2023-04-13T05:41:54.163Z,17.90
2023-04-13T05:44:21.180Z,17.90
2023-04-13T05:46:50.727Z,17.90
2023-04-13T05:49:17.694Z,17.90
2023-04-13T05:51:45.108Z,17.90
2023-04-13T05:54:13.878Z,17.90
2023-04-13T05:56:47.547Z,17.80
2023-04-13T05:59:15.368Z,17.90
2023-04-13T06:01:42.465Z,17.90
2023-04-13T06:04:11.793Z,17.80
2023-04-13T06:06:38.656Z,17.80
2023-04-13T06:09:06.757Z,17.80
2023-04-13T06:11:33.502Z,17.80
2023-04-13T06:14:02.486Z,17.80
2023-04-13T06:16:29.418Z,17.80
2023-04-13T06:18:56.233Z,17.80
2023-04-13T06:21:27.704Z,17.80
2023-04-13T06:23:54.445Z,17.80
2023-04-13T06:26:37.380Z,17.90
2023-04-13T06:29:04.882Z,17.80
2023-04-13T06:31:41.185Z,17.80
2023-04-13T06:34:13.752Z,17.80
2023-04-13T06:36:40.712Z,17.80
2023-04-13T06:39:09.339Z,17.80
2023-04-13T06:41:37.423Z,17.80
2023-04-13T06:44:14.998Z,17.80
2023-04-13T06:46:57.071Z,17.80
2023-04-13T06:49:25.623Z,17.80
2023-04-13T06:51:52.496Z,17.80
2023-04-13T06:54:19.336Z,17.80
2023-04-13T06:56:50.108Z,17.80
2023-04-13T06:59:16.899Z,17.80
2023-04-13T07:01:43.699Z,17.70
2023-04-13T07:04:11.331Z,17.70
2023-04-13T07:06:41.565Z,17.70
2023-04-13T07:09:08.281Z,17.70
2023-04-13T07:11:35.177Z,17.70
2023-04-13T07:14:03.695Z,17.70
2023-04-13T07:16:30.620Z,17.70
2023-04-13T07:19:00.789Z,17.70
2023-04-13T07:21:27.848Z,17.70
2023-04-13T07:24:05.358Z,17.70
2023-04-13T07:26:34.388Z,17.70
2023-04-13T07:29:01.465Z,17.70
2023-04-13T07:31:35.133Z,17.60
2023-04-13T07:34:02.297Z,17.60
2023-04-13T07:36:34.637Z,17.60
2023-04-13T07:39:08.848Z,17.60
2023-04-13T07:41:37.838Z,17.60
2023-04-13T07:44:07.603Z,17.60
2023-04-13T07:46:34.603Z,17.60
2023-04-13T07:49:02.085Z,17.60
2023-04-13T07:51:34.557Z,17.60
2023-04-13T07:54:02.696Z,17.60
2023-04-13T07:56:31.727Z,17.60
2023-04-13T07:59:00.485Z,17.60
2023-04-13T08:01:27.843Z,17.60
2023-04-13T08:03:56.965Z,17.60
2023-04-13T08:06:27.103Z,17.60
2023-04-13T08:08:54.385Z,17.50
2023-04-13T08:11:21.466Z,17.50
2023-04-13T08:13:54.202Z,17.50
2023-04-13T08:16:21.506Z,17.50
2023-04-13T08:18:48.448Z,17.50
2023-04-13T08:21:15.510Z,17.50
2023-04-13T08:23:45.201Z,17.50
2023-04-13T08:26:19.874Z,17.50
2023-04-13T08:28:48.265Z,17.50
2023-04-13T08:31:15.875Z,17.50
2023-04-13T08:33:48.231Z,17.40
2023-04-13T08:36:17.212Z,17.50
2023-04-13T08:38:47.464Z,17.40
2023-04-13T08:41:17.504Z,17.40
2023-04-13T08:43:50.863Z,17.40
2023-04-13T08:46:21.418Z,17.40
2023-04-13T08:48:54.489Z,17.40
2023-04-13T08:51:29.403Z,17.40
2023-04-13T08:53:56.382Z,17.40
2023-04-13T08:56:37.656Z,17.40
2023-04-13T08:59:11.881Z,17.40
2023-04-13T09:01:39.260Z,17.40
2023-04-13T09:04:11.651Z,17.40
2023-04-13T09:06:43.078Z,17.40
2023-04-13T09:09:17.026Z,17.40
2023-04-13T09:11:45.686Z,17.40
2023-04-13T09:14:12.628Z,17.40
2023-04-13T09:16:43.714Z,17.40
2023-04-13T09:19:32.714Z,17.40
2023-04-13T09:22:13.886Z,17.40
2023-04-13T09:24:41.496Z,17.30
2023-04-13T09:27:21.111Z,17.30
2023-04-13T09:29:52.645Z,17.30
2023-04-13T09:32:24.022Z,17.40
2023-04-13T09:35:04.441Z,17.30
2023-04-13T09:37:32.706Z,17.30
2023-04-13T09:40:13.903Z,17.30
2023-04-13T09:42:41.889Z,17.30
2023-04-13T09:45:09.653Z,17.30
2023-04-13T09:47:40.864Z,17.30
2023-04-13T09:50:28.990Z,17.30
2023-04-13T09:52:59.577Z,17.30
2023-04-13T09:55:27.848Z,17.30
2023-04-13T09:57:54.567Z,17.30
2023-04-13T10:00:21.906Z,17.30
2023-04-13T10:02:50.770Z,17.30
2023-04-13T10:05:19.644Z,17.30
2023-04-13T10:07:47.434Z,17.30
2023-04-13T10:10:14.595Z,17.30
2023-04-13T10:12:47.478Z,17.30
2023-04-13T10:15:39.349Z,17.30
2023-04-13T10:18:19.064Z,17.30
2023-04-13T10:20:47.167Z,17.30
2023-04-13T10:23:14.651Z,17.30
2023-04-13T10:25:55.004Z,17.40
2023-04-13T10:28:26.161Z,17.40
2023-04-13T10:30:56.322Z,17.60
2023-04-13T10:33:23.110Z,17.70
2023-04-13T10:36:01.069Z,17.80
2023-04-13T10:38:27.956Z,17.80
2023-04-13T10:40:54.786Z,17.90
2023-04-13T10:43:31.923Z,18.00
2023-04-13T10:46:16.393Z,18.10
2023-04-13T10:48:43.551Z,18.20
2023-04-13T10:51:10.315Z,18.20
2023-04-13T10:53:37.532Z,18.20
2023-04-13T10:56:14.621Z,18.30
2023-04-13T10:58:42.058Z,18.30
2023-04-13T11:01:11.066Z,18.30
2023-04-13T11:03:38.094Z,18.30
2023-04-13T11:06:06.331Z,18.30
2023-04-13T11:08:34.928Z,18.40
2023-04-13T11:11:01.840Z,18.40
2023-04-13T11:13:29.718Z,18.40
2023-04-13T11:16:04.717Z,18.50
2023-04-13T11:18:32.000Z,18.50
2023-04-13T11:20:59.214Z,18.50
2023-04-13T11:23:26.259Z,18.50
2023-04-13T11:26:01.794Z,18.60
2023-04-13T11:28:40.282Z,18.60
2023-04-13T11:31:07.727Z,18.60
2023-04-13T11:33:36.700Z,18.60
2023-04-13T11:36:06.211Z,18.70
2023-04-13T11:38:32.912Z,18.70
2023-04-13T11:41:15.588Z,18.70
2023-04-13T11:43:46.334Z,18.70
2023-04-13T11:46:15.340Z,18.70
2023-04-13T11:48:43.421Z,18.80
2023-04-13T11:51:11.476Z,18.80
2023-04-13T11:53:39.493Z,18.80
2023-04-13T11:56:07.265Z,18.80
2023-04-13T11:58:34.541Z,18.80
2023-04-13T12:01:14.545Z,18.90
2023-04-13T12:03:57.611Z,18.90
2023-04-13T12:06:32.713Z,18.90
2023-04-13T12:09:09.290Z,18.90
2023-04-13T12:11:41.958Z,18.90
2023-04-13T12:14:49.657Z,18.90
2023-04-13T12:19:46.674Z,19.00
2023-04-13T12:22:14.967Z,19.00
2023-04-13T12:24:42.836Z,19.00
2023-04-13T12:27:18.484Z,19.00
2023-04-13T12:29:46.245Z,19.00
2023-04-13T12:32:14.940Z,19.10
2023-04-13T12:34:43.078Z,19.10
2023-04-13T12:37:11.220Z,19.10
2023-04-13T12:39:38.248Z,19.10
2023-04-13T12:42:05.202Z,19.10
2023-04-13T12:44:33.767Z,19.10
2023-04-13T12:47:01.763Z,19.20
2023-04-13T12:49:28.742Z,19.20
2023-04-13T12:51:55.548Z,19.10
2023-04-13T12:54:22.360Z,19.20
2023-04-13T12:56:49.130Z,19.20
2023-04-13T12:59:16.699Z,19.20
2023-04-13T13:01:43.520Z,19.20
2023-04-13T13:04:10.346Z,19.20
2023-04-13T13:06:37.107Z,19.20
2023-04-13T13:09:03.851Z,19.20
2023-04-13T13:11:31.321Z,19.30
2023-04-13T13:13:58.025Z,19.30
2023-04-13T13:16:24.806Z,19.30
2023-04-13T13:18:52.280Z,19.30
2023-04-13T13:21:19.325Z,19.30
2023-04-13T13:23:46.319Z,19.30
2023-04-13T13:26:23.874Z,19.40
2023-04-13T13:28:52.158Z,19.40
2023-04-13T13:31:19.355Z,19.40
2023-04-13T13:33:46.282Z,19.40
2023-04-13T13:36:14.337Z,19.40
2023-04-13T13:38:42.783Z,19.40
2023-04-13T13:41:09.997Z,19.30
2023-04-13T13:43:37.736Z,19.30
2023-04-13T13:46:05.851Z,19.30
2023-04-13T13:48:34.336Z,19.20
2023-04-13T13:51:18.408Z,19.20
2023-04-13T13:53:48.748Z,19.20
2023-04-13T13:56:18.361Z,19.20
2023-04-13T13:58:45.176Z,19.20
2023-04-13T14:01:11.927Z,19.10
2023-04-13T14:03:45.134Z,19.10
2023-04-13T14:06:59.434Z,19.10
2023-04-13T14:09:26.043Z,19.10
2023-04-13T14:15:11.541Z,19.00
2023-04-13T14:18:08.995Z,19.00
2023-04-13T14:20:46.258Z,18.90
2023-04-13T14:23:22.146Z,18.90
2023-04-13T14:25:48.850Z,18.90
2023-04-13T14:28:15.536Z,18.90
2023-04-13T14:30:42.244Z,18.90
2023-04-13T14:33:16.982Z,18.90
2023-04-13T14:35:47.752Z,18.90
2023-04-13T14:38:18.550Z,18.90
2023-04-13T14:40:54.850Z,18.80
2023-04-13T14:43:29.529Z,18.80
2023-04-13T14:47:28.524Z,18.80
2023-04-13T14:49:33.344Z,18.80
2023-04-13T14:52:08.297Z,18.80
2023-04-13T14:54:35.270Z,18.80
2023-04-13T14:57:07.417Z,18.80
2023-04-13T14:59:41.670Z,18.80
2023-04-13T15:02:32.338Z,18.80
2023-04-13T15:05:19.839Z,18.80
2023-04-13T15:10:35.585Z,18.80
2023-04-13T15:13:45.472Z,18.70
2023-04-13T15:16:42.377Z,18.70
2023-04-13T15:19:09.151Z,18.70
2023-04-13T15:21:40.370Z,18.70
2023-04-13T15:24:16.127Z,18.70
2023-04-13T15:26:42.835Z,18.70
2023-04-13T15:29:09.613Z,18.80
2023-04-13T15:31:37.819Z,18.80
2023-04-13T15:34:06.434Z,18.80
2023-04-13T15:36:33.148Z,18.80
2023-04-13T15:39:00.748Z,18.80
2023-04-13T15:41:27.804Z,18.80
2023-04-13T15:43:55.760Z,18.80
2023-04-13T15:46:22.764Z,18.80
2023-04-13T15:48:50.339Z,18.80
2023-04-13T15:51:17.199Z,18.80
2023-04-13T15:53:43.886Z,18.90
2023-04-13T15:56:10.589Z,18.90
2023-04-13T15:58:37.599Z,18.90
2023-04-13T16:01:09.473Z,18.90
2023-04-13T16:03:36.808Z,18.90
2023-04-13T16:06:03.876Z,18.90
2023-04-13T16:08:31.205Z,18.90
2023-04-13T16:10:57.967Z,18.90
2023-04-13T16:13:34.654Z,18.90
2023-04-13T16:16:08.110Z,18.90
2023-04-13T16:18:35.702Z,19.00
2023-04-13T16:21:03.858Z,19.00
2023-04-13T16:23:34.370Z,19.00
2023-04-13T16:26:01.536Z,19.00
2023-04-13T16:28:29.610Z,19.00
2023-04-13T16:30:56.499Z,19.00
2023-04-13T16:33:23.383Z,19.00
2023-04-13T16:35:50.805Z,19.10
2023-04-13T16:38:17.557Z,19.10
2023-04-13T16:40:44.310Z,19.10
2023-04-13T16:43:10.997Z,19.10
2023-04-13T16:45:37.800Z,19.10
2023-04-13T16:48:05.370Z,19.20
2023-04-13T16:50:32.665Z,19.20
2023-04-13T16:53:03.034Z,19.20
2023-04-13T16:55:31.393Z,19.20
2023-04-13T16:57:58.217Z,19.20
2023-04-13T17:00:50.579Z,19.20
2023-04-13T17:03:20.593Z,19.30
2023-04-13T17:05:47.545Z,19.30
2023-04-13T17:08:17.296Z,19.30
2023-04-13T17:10:44.192Z,19.30
2023-04-13T17:13:10.869Z,19.30
2023-04-13T17:15:37.552Z,19.40
2023-04-13T17:18:11.907Z,19.40
2023-04-13T17:20:44.568Z,19.40
2023-04-13T17:23:24.511Z,19.40
2023-04-13T17:25:59.932Z,19.40
2023-04-13T17:28:33.508Z,19.40
2023-04-13T17:31:11.024Z,19.40
2023-04-13T17:33:37.955Z,19.50
2023-04-13T17:36:04.814Z,19.50
2023-04-13T17:38:31.531Z,19.50
2023-04-13T17:40:58.257Z,19.50
2023-04-13T17:43:25.386Z,19.60
2023-04-13T17:45:52.177Z,19.60
2023-04-13T17:48:18.839Z,19.60
2023-04-13T17:50:45.538Z,19.60
2023-04-13T17:53:12.213Z,19.60
2023-04-13T17:55:39.265Z,19.60
2023-04-13T17:58:05.968Z,19.60
2023-04-13T18:00:32.701Z,19.60
2023-04-13T18:03:00.212Z,19.70
2023-04-13T18:05:28.415Z,19.70
2023-04-13T18:07:55.167Z,19.70
2023-04-13T18:10:21.911Z,19.70
2023-04-13T18:12:49.598Z,19.70
2023-04-13T18:15:16.770Z,19.70
2023-04-13T18:17:43.643Z,19.70
2023-04-13T18:20:11.013Z,19.60
2023-04-13T18:22:37.720Z,19.70
2023-04-13T18:25:05.750Z,19.70
2023-04-13T18:27:32.652Z,19.70
2023-04-13T18:29:59.368Z,19.60
2023-04-13T18:32:26.115Z,19.60
2023-04-13T18:34:52.809Z,19.60
2023-04-13T18:37:19.506Z,19.60
2023-04-13T18:39:46.211Z,19.60
2023-04-13T18:42:12.874Z,19.60
2023-04-13T18:44:39.513Z,19.60
2023-04-13T18:47:06.322Z,19.60
2023-04-13T18:49:33.032Z,19.60
2023-04-13T18:52:00.262Z,19.60
2023-04-13T18:54:27.015Z,19.60
2023-04-13T18:56:53.770Z,19.60
2023-04-13T18:59:20.686Z,19.60
2023-04-13T19:01:47.758Z,19.60
2023-04-13T19:04:14.725Z,19.50
2023-04-13T19:06:41.636Z,19.50
2023-04-13T19:09:08.430Z,19.50
2023-04-13T19:11:51.980Z,19.50
2023-04-13T19:14:18.937Z,19.50
2023-04-13T19:16:47.539Z,19.50
2023-04-13T19:19:15.200Z,19.50
2023-04-13T19:21:42.061Z,19.50
2023-04-13T19:24:11.330Z,19.50
2023-04-13T19:26:38.162Z,19.50
2023-04-13T19:29:04.976Z,19.50
2023-04-13T19:31:36.038Z,19.50
2023-04-13T19:34:02.860Z,19.50
2023-04-13T19:36:29.530Z,19.40
2023-04-13T19:38:56.431Z,19.40
2023-04-13T19:41:23.108Z,19.50
2023-04-13T19:43:51.000Z,19.40
2023-04-13T19:46:17.682Z,19.40
2023-04-13T19:48:44.752Z,19.40
2023-04-13T19:51:11.635Z,19.40
2023-04-13T19:53:38.545Z,19.40
2023-04-13T19:56:05.471Z,19.40
2023-04-13T19:58:32.315Z,19.40
2023-04-13T20:00:59.460Z,19.40
2023-04-13T20:03:26.556Z,19.40
2023-04-13T20:05:53.784Z,19.40
2023-04-13T20:08:20.961Z,19.40
2023-04-13T20:10:59.925Z,19.40
2023-04-13T20:13:27.730Z,19.40
2023-04-13T20:15:54.553Z,19.40
2023-04-13T20:18:21.450Z,19.40
2023-04-13T20:20:49.650Z,19.40
2023-04-13T20:23:16.313Z,19.40
2023-04-13T20:25:43.027Z,19.40
2023-04-13T20:28:10.343Z,19.40
2023-04-13T20:30:39.317Z,19.40
2023-04-13T20:33:07.329Z,19.40
2023-04-13T20:35:34.234Z,19.30
2023-04-13T20:38:00.978Z,19.30
2023-04-13T20:40:28.299Z,19.30
2023-04-13T20:42:58.467Z,19.30
2023-04-13T20:45:25.807Z,19.30
2023-04-13T20:47:57.007Z,19.30
2023-04-13T20:50:26.534Z,19.30
2023-04-13T20:52:56.479Z,19.30
2023-04-13T20:55:24.341Z,19.20
2023-04-13T20:57:51.588Z,19.30
2023-04-13T21:00:22.926Z,19.20
2023-04-13T21:02:49.848Z,19.20
2023-04-13T21:05:16.717Z,19.20
2023-04-13T21:07:43.447Z,19.20
2023-04-13T21:10:11.196Z,19.20
2023-04-13T21:12:37.908Z,19.20
2023-04-13T21:15:05.233Z,19.20
2023-04-13T21:17:32.115Z,19.20
2023-04-13T21:19:58.860Z,19.10
2023-04-13T21:22:25.800Z,19.10
2023-04-13T21:24:52.660Z,19.10
2023-04-13T21:27:19.513Z,19.10
2023-04-13T21:29:46.177Z,19.10
2023-04-13T21:32:13.652Z,19.10
2023-04-13T21:34:40.449Z,19.10
2023-04-13T21:37:07.221Z,19.10
2023-04-13T21:39:34.130Z,19.00
2023-04-13T21:42:00.783Z,19.00
2023-04-13T21:44:30.070Z,19.00
2023-04-13T21:46:58.431Z,19.00
2023-04-13T21:49:25.304Z,19.00
2023-04-13T21:51:51.966Z,18.90
2023-04-13T21:54:18.826Z,18.90
2023-04-13T21:56:46.000Z,18.90
2023-04-13T21:59:12.758Z,18.90
2023-04-13T22:01:39.504Z,18.90
2023-04-13T22:04:06.411Z,18.90
2023-04-13T22:06:33.134Z,18.90
2023-04-13T22:09:00.163Z,18.90
2023-04-13T22:11:27.048Z,18.80
2023-04-13T22:13:53.695Z,18.80
2023-04-13T22:16:20.579Z,18.80
2023-04-13T22:18:47.378Z,18.80
2023-04-13T22:21:14.073Z,18.80
2023-04-13T22:23:40.879Z,18.80
2023-04-13T22:26:07.587Z,18.80
2023-04-13T22:28:34.322Z,18.70
2023-04-13T22:31:13.191Z,18.70
2023-04-13T22:33:40.453Z,18.70
2023-04-13T22:36:17.358Z,18.70
2023-04-13T22:38:44.414Z,18.70
2023-04-13T22:41:11.404Z,18.70
2023-04-13T22:43:38.201Z,18.70
2023-04-13T22:46:05.069Z,18.70
2023-04-13T22:48:32.080Z,18.70
2023-04-13T22:51:00.460Z,18.60
2023-04-13T22:53:27.539Z,18.60
2023-04-13T22:55:54.478Z,18.60
2023-04-13T22:58:21.228Z,18.60
2023-04-13T23:00:47.883Z,18.60
2023-04-13T23:03:14.878Z,18.60
2023-04-13T23:05:41.740Z,18.60
2023-04-13T23:08:08.474Z,18.60
2023-04-13T23:10:35.178Z,18.50
2023-04-13T23:13:01.828Z,18.50
2023-04-13T23:15:28.536Z,18.50
2023-04-13T23:17:56.239Z,18.50
2023-04-13T23:20:23.650Z,18.50
2023-04-13T23:22:50.425Z,18.50
2023-04-13T23:25:17.241Z,18.50
2023-04-13T23:27:43.945Z,18.50
2023-04-13T23:30:11.346Z,18.40
2023-04-13T23:32:38.208Z,18.40
2023-04-13T23:35:06.321Z,18.40
2023-04-13T23:37:33.032Z,18.40
2023-04-13T23:39:59.982Z,18.40
2023-04-13T23:42:27.976Z,18.40
2023-04-13T23:44:54.705Z,18.40
2023-04-13T23:47:21.476Z,18.40
2023-04-13T23:49:48.333Z,18.30
2023-04-13T23:52:15.032Z,18.30
2023-04-13T23:54:41.792Z,18.30
2023-04-13T23:57:09.710Z,18.30
2023-04-13T23:59:36.567Z,18.30
